Malmo, Nebraska
Current Conditions -  °F | °C
As of 1:15 PM on Thursday 18 Dec 2014 (Local Time) from KAHQ Reporting Station
Overcast Overcast  
Wind Chill: 26°   Ceiling: 1100
Heat Index: 31°   Visibility: 10mi
Dew Point: 26°   Wind: 5mph
Humidity: 82%   Direction: 160°SSE
Pressure: 30.2"   Gusts: NA
Location:  41.27°N, 96.72°W
Report Text: KAHQ 181915Z AUTO 16004KT 10SM OVC011 M01/M04 A3020 RMK AO2 T10081036
Loading
Personal Weather Stations






























Interactive Weather Map New forecast layout! Learn more

10-Day Weather Forecast

Advertisements
Track Severe Weather on mobile